Time;durP1;ratioP1;P1;durP2;ratioP2;P2;SDS_P1;SDS_P2;PMS_P1;PMS_P2;Temp;Humidity;BMP_temperature;BMP_pressure;BME280_temperature;BME280_humidity;BME280_pressure;Samples;Min_cycle;Max_cycle;Signal;HPM_P1;HPM_P2
2022/07/25 00:00:08;;;;;;;6.75;2.85;;;;;;;;;;5052371;28;20045;-66
2022/07/25 00:02:35;;;;;;;6.15;2.40;;;;;;;;;;5052199;28;20083;-66
2022/07/25 00:05:02;;;;;;;2.88;2.67;;;;;;;;;;5052027;28;20092;-67
2022/07/25 00:07:29;;;;;;;4.70;2.40;;;;;;;;;;5039817;28;20049;-66
2022/07/25 00:09:55;;;;;;;7.40;2.80;;;;;;;;;;5052124;28;20073;-66
2022/07/25 00:12:22;;;;;;;5.67;2.90;;;;;;;;;;5052153;28;20199;-66
2022/07/25 00:14:48;;;;;;;4.03;2.63;;;;;;;;;;5052134;28;20080;-66
2022/07/25 00:17:15;;;;;;;4.82;2.67;;;;;;;;;;5052105;28;20044;-67
2022/07/25 00:19:41;;;;;;;5.68;2.67;;;;;;;;;;5052135;28;20069;-66
2022/07/25 00:22:07;;;;;;;6.32;2.80;;;;;;;;;;5051675;28;20072;-66
2022/07/25 00:24:34;;;;;;;5.80;2.92;;;;;;;;;;5051781;28;20130;-66
2022/07/25 00:27:01;;;;;;;4.63;3.25;;;;;;;;;;5052035;28;20413;-66
2022/07/25 00:29:28;;;;;;;6.30;2.80;;;;;;;;;;5050656;28;20056;-66
2022/07/25 00:31:54;;;;;;;8.15;3.25;;;;;;;;;;5051984;28;20099;-66
2022/07/25 00:34:21;;;;;;;9.20;3.45;;;;;;;;;;5051777;28;20090;-66
2022/07/25 00:36:47;;;;;;;7.47;2.90;;;;;;;;;;5051686;28;20056;-67
2022/07/25 00:39:14;;;;;;;9.50;3.08;;;;;;;;;;5051425;28;20069;-66
2022/07/25 00:41:40;;;;;;;8.88;3.85;;;;;;;;;;5051712;28;20460;-67
2022/07/25 00:44:06;;;;;;;11.05;4.07;;;;;;;;;;5051690;28;20091;-66
2022/07/25 00:46:36;;;;;;;8.00;3.58;;;;;;;;;;5051300;28;20141;-67
2022/07/25 00:49:02;;;;;;;9.25;3.53;;;;;;;;;;5051700;28;20144;-66
2022/07/25 00:51:29;;;;;;;10.17;3.97;;;;;;;;;;5051312;28;20420;-67
2022/07/25 00:53:56;;;;;;;6.10;3.30;;;;;;;;;;5051294;28;20081;-66
2022/07/25 00:56:23;;;;;;;9.53;3.33;;;;;;;;;;5051533;28;20134;-67
2022/07/25 00:58:49;;;;;;;8.52;3.40;;;;;;;;;;5051842;28;20282;-66
2022/07/25 01:01:16;;;;;;;7.35;3.50;;;;;;;;;;5051274;28;20077;-66
2022/07/25 01:03:42;;;;;;;12.40;4.10;;;;;;;;;;5051642;28;20439;-67
2022/07/25 01:06:09;;;;;;;8.65;3.92;;;;;;;;;;5051493;28;20111;-66
2022/07/25 01:08:36;;;;;;;9.00;3.30;;;;;;;;;;5051473;28;20087;-66
2022/07/25 01:11:02;;;;;;;11.10;4.32;;;;;;;;;;5051601;28;20396;-66
2022/07/25 01:13:31;;;;;;;11.27;3.43;;;;;;;;;;5051478;28;20080;-66
2022/07/25 01:15:57;;;;;;;8.45;3.55;;;;;;;;;;5051263;28;20076;-66
2022/07/25 01:18:24;;;;;;;9.13;3.80;;;;;;;;;;5054240;28;20099;-66
2022/07/25 01:20:50;;;;;;;9.18;3.83;;;;;;;;;;5055390;28;20382;-67
2022/07/25 01:23:17;;;;;;;9.13;3.75;;;;;;;;;;5055077;28;20083;-67
2022/07/25 01:25:43;;;;;;;9.90;3.60;;;;;;;;;;5055256;28;20076;-66
2022/07/25 01:28:10;;;;;;;7.97;3.60;;;;;;;;;;5055028;28;20147;-67
2022/07/25 01:30:36;;;;;;;7.45;3.70;;;;;;;;;;5055160;28;20378;-66
2022/07/25 01:33:03;;;;;;;10.77;3.80;;;;;;;;;;5055193;28;20098;-66
2022/07/25 01:35:32;;;;;;;9.68;3.38;;;;;;;;;;5055078;28;20051;-67
2022/07/25 01:37:59;;;;;;;7.95;3.42;;;;;;;;;;5055153;28;20068;-66
2022/07/25 01:40:25;;;;;;;10.38;3.58;;;;;;;;;;5054774;28;20592;-67
2022/07/25 01:42:52;;;;;;;8.45;3.70;;;;;;;;;;5054905;28;20136;-66
2022/07/25 01:45:18;;;;;;;10.93;3.40;;;;;;;;;;5054495;28;20084;-66
2022/07/25 01:47:45;;;;;;;6.72;3.35;;;;;;;;;;5054845;28;20073;-66
2022/07/25 01:50:11;;;;;;;8.65;3.50;;;;;;;;;;5054878;28;20045;-66
2022/07/25 01:52:38;;;;;;;10.90;3.80;;;;;;;;;;5054684;28;20080;-67
2022/07/25 01:55:05;;;;;;;5.97;3.10;;;;;;;;;;5054606;28;20080;-66
2022/07/25 01:57:31;;;;;;;6.90;3.30;;;;;;;;;;5054612;28;20045;-66
2022/07/25 01:59:58;;;;;;;7.32;3.10;;;;;;;;;;5054217;28;20501;-66
2022/07/25 02:02:25;;;;;;;8.55;3.50;;;;;;;;;;5054490;28;20087;-66
2022/07/25 02:04:51;;;;;;;7.68;3.15;;;;;;;;;;5054231;28;20045;-66
2022/07/25 02:07:18;;;;;;;6.00;3.17;;;;;;;;;;5050564;28;20083;-66
2022/07/25 02:09:44;;;;;;;5.73;2.70;;;;;;;;;;5052087;28;20045;-65
2022/07/25 02:12:11;;;;;;;8.00;2.92;;;;;;;;;;5054433;28;20091;-66
2022/07/25 02:14:37;;;;;;;9.85;3.75;;;;;;;;;;5054190;28;20520;-66
2022/07/25 02:17:04;;;;;;;7.75;3.30;;;;;;;;;;5054158;28;20079;-66
2022/07/25 02:19:31;;;;;;;5.10;2.60;;;;;;;;;;5054254;28;20045;-66
2022/07/25 02:21:57;;;;;;;7.00;3.30;;;;;;;;;;5054306;28;20041;-65
2022/07/25 02:24:24;;;;;;;6.75;2.78;;;;;;;;;;5054251;28;20085;-66
2022/07/25 02:26:50;;;;;;;9.77;3.05;;;;;;;;;;5053936;28;20076;-66
2022/07/25 02:29:17;;;;;;;5.75;2.60;;;;;;;;;;5053194;28;20087;-66
2022/07/25 02:31:47;;;;;;;8.45;2.53;;;;;;;;;;5054028;28;20102;-66
2022/07/25 02:34:13;;;;;;;3.30;1.90;;;;;;;;;;5054089;28;20087;-66
2022/07/25 02:36:40;;;;;;;3.78;2.22;;;;;;;;;;5053877;28;20080;-66
2022/07/25 02:39:06;;;;;;;4.80;2.38;;;;;;;;;;5053697;28;20077;-65
2022/07/25 02:41:33;;;;;;;5.00;2.42;;;;;;;;;;5053512;28;20149;-66
2022/07/25 02:43:59;;;;;;;3.75;1.95;;;;;;;;;;5053805;28;20131;-66
2022/07/25 02:46:25;;;;;;;6.07;2.60;;;;;;;;;;5053531;28;20091;-66
2022/07/25 02:48:52;;;;;;;5.22;2.25;;;;;;;;;;5053784;28;20440;-66
2022/07/25 02:51:18;;;;;;;6.00;2.08;;;;;;;;;;5053775;28;20110;-65
2022/07/25 02:53:45;;;;;;;4.00;1.67;;;;;;;;;;5053586;28;20080;-65
2022/07/25 02:56:32;;;;;;;4.10;1.75;;;;;;;;;;5053225;28;20063;-66
2022/07/25 02:58:58;;;;;;;5.93;2.20;;;;;;;;;;5053238;28;20041;-65
2022/07/25 03:01:25;;;;;;;9.80;2.72;;;;;;;;;;5052357;28;20087;-66
2022/07/25 03:03:52;;;;;;;8.52;2.05;;;;;;;;;;5053148;28;20054;-65
2022/07/25 03:06:18;;;;;;;4.53;1.60;;;;;;;;;;5053319;28;20095;-66
2022/07/25 03:08:45;;;;;;;4.25;1.60;;;;;;;;;;5053365;28;20095;-65
2022/07/25 03:11:12;;;;;;;4.10;1.80;;;;;;;;;;5053308;28;20053;-65
2022/07/25 03:13:38;;;;;;;3.15;1.58;;;;;;;;;;5053383;28;20091;-66
2022/07/25 03:16:05;;;;;;;5.78;1.95;;;;;;;;;;5053037;28;20040;-66
2022/07/25 03:18:32;;;;;;;4.50;1.93;;;;;;;;;;5053245;28;20087;-65
2022/07/25 03:20:58;;;;;;;5.40;1.60;;;;;;;;;;5053085;28;20091;-66
2022/07/25 03:23:26;;;;;;;6.03;1.80;;;;;;;;;;5052807;28;20132;-66
2022/07/25 03:25:53;;;;;;;4.95;1.50;;;;;;;;;;5052690;28;20492;-66
2022/07/25 03:28:19;;;;;;;5.38;1.75;;;;;;;;;;5052983;28;20092;-66
2022/07/25 03:30:46;;;;;;;4.68;1.73;;;;;;;;;;5052831;28;20056;-66
2022/07/25 03:33:12;;;;;;;4.72;1.70;;;;;;;;;;5052914;28;20088;-66
2022/07/25 03:35:39;;;;;;;4.07;1.60;;;;;;;;;;5052847;28;20114;-66
2022/07/25 03:38:05;;;;;;;3.25;1.55;;;;;;;;;;5052769;28;20119;-66
2022/07/25 03:40:32;;;;;;;4.20;1.43;;;;;;;;;;5052161;28;20099;-66
2022/07/25 03:42:58;;;;;;;6.22;1.52;;;;;;;;;;5052238;28;20080;-66
2022/07/25 03:45:24;;;;;;;7.80;1.80;;;;;;;;;;5052479;28;20081;-67
2022/07/25 03:47:52;;;;;;;2.97;1.38;;;;;;;;;;5052351;28;20497;-66
2022/07/25 03:50:18;;;;;;;2.25;1.42;;;;;;;;;;5052186;28;20560;-66
2022/07/25 03:52:44;;;;;;;3.33;1.10;;;;;;;;;;5052221;28;20409;-66
2022/07/25 03:55:11;;;;;;;4.50;1.15;;;;;;;;;;5052132;28;20041;-66
2022/07/25 03:57:38;;;;;;;2.93;1.40;;;;;;;;;;5052464;28;20127;-66
2022/07/25 04:00:06;;;;;;;3.87;1.47;;;;;;;;;;5052014;28;20048;-66
2022/07/25 04:02:33;;;;;;;6.28;1.60;;;;;;;;;;5052439;28;20053;-67
2022/07/25 04:04:59;;;;;;;6.23;1.47;;;;;;;;;;5052075;28;20464;-66
2022/07/25 04:07:26;;;;;;;3.75;1.58;;;;;;;;;;5052012;28;20133;-66
2022/07/25 04:09:52;;;;;;;4.20;1.20;;;;;;;;;;5051983;28;20091;-66
2022/07/25 04:12:19;;;;;;;2.97;1.10;;;;;;;;;;5052158;28;20053;-66
2022/07/25 04:14:45;;;;;;;2.28;0.93;;;;;;;;;;5051880;28;20092;-66
2022/07/25 04:17:11;;;;;;;3.38;1.40;;;;;;;;;;5051710;28;20084;-66
2022/07/25 04:19:38;;;;;;;4.53;0.98;;;;;;;;;;5052125;28;20045;-66
2022/07/25 04:22:05;;;;;;;4.07;1.10;;;;;;;;;;5051988;28;20107;-66
2022/07/25 04:24:31;;;;;;;3.20;1.20;;;;;;;;;;5051992;28;20080;-66
2022/07/25 04:26:58;;;;;;;4.47;1.13;;;;;;;;;;5051844;28;20110;-67
2022/07/25 04:29:24;;;;;;;5.72;1.17;;;;;;;;;;5051882;28;20479;-67
2022/07/25 04:31:50;;;;;;;4.15;0.98;;;;;;;;;;5051722;28;20131;-66
2022/07/25 04:34:17;;;;;;;5.47;0.93;;;;;;;;;;5051649;28;20455;-66
2022/07/25 04:36:43;;;;;;;4.05;1.02;;;;;;;;;;5051678;28;20136;-66
2022/07/25 04:39:10;;;;;;;2.45;1.35;;;;;;;;;;5051844;28;20077;-66
2022/07/25 04:41:37;;;;;;;2.43;1.13;;;;;;;;;;5051494;28;20531;-67
2022/07/25 04:44:03;;;;;;;3.55;0.95;;;;;;;;;;5051505;28;20091;-66
2022/07/25 04:46:31;;;;;;;4.18;0.90;;;;;;;;;;5051318;28;20061;-66
2022/07/25 04:48:58;;;;;;;4.40;1.10;;;;;;;;;;5051702;28;20041;-66
2022/07/25 04:51:24;;;;;;;7.65;1.50;;;;;;;;;;5051414;28;20049;-66
2022/07/25 04:53:51;;;;;;;4.07;1.00;;;;;;;;;;5057722;28;20091;-66
2022/07/25 04:56:17;;;;;;;2.70;0.90;;;;;;;;;;5058221;28;20052;-66
2022/07/25 04:58:44;;;;;;;5.05;0.98;;;;;;;;;;5058203;28;20073;-66
2022/07/25 05:01:10;;;;;;;2.25;0.85;;;;;;;;;;5058310;28;20095;-66
2022/07/25 05:03:37;;;;;;;3.10;1.00;;;;;;;;;;5057950;28;20152;-66
2022/07/25 05:06:03;;;;;;;3.75;0.90;;;;;;;;;;5057885;28;20470;-66
2022/07/25 05:08:30;;;;;;;4.00;0.77;;;;;;;;;;5058152;28;20057;-66
2022/07/25 05:10:56;;;;;;;3.15;1.30;;;;;;;;;;5058098;28;20045;-67
2022/07/25 05:13:23;;;;;;;4.28;0.77;;;;;;;;;;5058022;28;20094;-66
2022/07/25 05:15:50;;;;;;;3.00;0.70;;;;;;;;;;5057703;28;20045;-66
2022/07/25 05:18:16;;;;;;;3.78;0.82;;;;;;;;;;5058052;28;20088;-66
2022/07/25 05:20:42;;;;;;;4.47;0.90;;;;;;;;;;5058138;28;20132;-67
2022/07/25 05:23:09;;;;;;;2.65;0.80;;;;;;;;;;5057948;28;20072;-65
2022/07/25 05:25:35;;;;;;;1.27;0.45;;;;;;;;;;5058118;28;20049;-66
2022/07/25 05:28:02;;;;;;;3.13;0.73;;;;;;;;;;5057684;28;20128;-66
2022/07/25 05:30:28;;;;;;;4.47;0.70;;;;;;;;;;5057776;28;20122;-66
2022/07/25 05:32:55;;;;;;;3.85;0.82;;;;;;;;;;5057603;28;20091;-66
2022/07/25 05:35:21;;;;;;;2.55;0.65;;;;;;;;;;5058023;28;20083;-66
2022/07/25 05:37:48;;;;;;;2.13;0.65;;;;;;;;;;5057844;28;20080;-66
2022/07/25 05:40:14;;;;;;;1.20;0.50;;;;;;;;;;5057443;28;20513;-66
2022/07/25 05:42:41;;;;;;;3.45;1.00;;;;;;;;;;5057595;28;20080;-66
2022/07/25 05:45:07;;;;;;;5.00;1.00;;;;;;;;;;5057584;28;20044;-66
2022/07/25 05:47:34;;;;;;;2.60;0.70;;;;;;;;;;5038451;28;20073;-66
2022/07/25 05:50:01;;;;;;;3.33;1.00;;;;;;;;;;5037386;28;20053;-66
2022/07/25 05:52:27;;;;;;;7.00;1.33;;;;;;;;;;5037220;28;20516;-65
2022/07/25 05:54:54;;;;;;;3.25;0.80;;;;;;;;;;5037133;28;20096;-67
2022/07/25 05:57:20;;;;;;;3.15;1.00;;;;;;;;;;5038754;28;20084;-66
2022/07/25 05:59:47;;;;;;;6.65;1.08;;;;;;;;;;5057443;28;20132;-66
2022/07/25 06:02:13;;;;;;;4.00;1.25;;;;;;;;;;5057396;28;20049;-66
2022/07/25 06:04:40;;;;;;;2.53;0.70;;;;;;;;;;5054782;28;20169;-66
2022/07/25 06:07:06;;;;;;;5.32;1.08;;;;;;;;;;5039724;28;20322;-67
2022/07/25 06:09:34;;;;;;;6.57;1.30;;;;;;;;;;5054048;28;20052;-69
2022/07/25 06:12:00;;;;;;;3.70;0.70;;;;;;;;;;5054132;28;20088;-69
2022/07/25 06:14:27;;;;;;;;;;;;;;;;;;5049533;28;20488;-67
2022/07/25 06:16:54;;;;;;;2.25;0.77;;;;;;;;;;5049502;28;20369;-68
2022/07/25 06:19:20;;;;;;;8.27;1.20;;;;;;;;;;5039361;28;20073;-67
2022/07/25 06:21:47;;;;;;;2.83;0.57;;;;;;;;;;5033898;28;20053;-69
2022/07/25 06:24:14;;;;;;;3.30;0.77;;;;;;;;;;5032184;28;20123;-70
2022/07/25 06:26:40;;;;;;;3.38;0.85;;;;;;;;;;5033206;28;20445;-71
2022/07/25 06:29:07;;;;;;;2.90;0.88;;;;;;;;;;5033651;28;20076;-68
2022/07/25 06:31:33;;;;;;;4.32;0.57;;;;;;;;;;5035853;28;20092;-70
2022/07/25 06:33:59;;;;;;;4.28;0.57;;;;;;;;;;5033404;28;20207;-66
2022/07/25 06:36:26;;;;;;;3.70;0.85;;;;;;;;;;5033562;28;20080;-68
2022/07/25 06:38:58;;;;;;;2.05;0.65;;;;;;;;;;5047689;28;20041;-67
2022/07/25 06:41:25;;;;;;;2.40;0.75;;;;;;;;;;5053596;28;20063;-70
2022/07/25 06:43:51;;;;;;;4.22;0.77;;;;;;;;;;5053646;28;20082;-66
2022/07/25 06:46:18;;;;;;;3.20;0.40;;;;;;;;;;5053469;28;20140;-68
2022/07/25 06:48:44;;;;;;;6.68;1.02;;;;;;;;;;5053354;28;20044;-66
2022/07/25 06:51:11;;;;;;;3.95;0.90;;;;;;;;;;5031541;28;20065;-67
2022/07/25 06:53:37;;;;;;;3.10;0.60;;;;;;;;;;5032890;28;20069;-69
2022/07/25 06:56:04;;;;;;;4.15;0.77;;;;;;;;;;5032536;28;20045;-69
2022/07/25 06:58:30;;;;;;;2.22;0.60;;;;;;;;;;5032631;28;20175;-67
2022/07/25 07:00:59;;;;;;;4.05;0.68;;;;;;;;;;5032406;28;20516;-68
2022/07/25 07:03:26;;;;;;;3.85;0.93;;;;;;;;;;5031350;28;20505;-67
2022/07/25 07:05:53;;;;;;;5.20;0.60;;;;;;;;;;5052498;28;20072;-68
2022/07/25 07:08:19;;;;;;;2.85;0.45;;;;;;;;;;5043139;28;20458;-67
2022/07/25 07:10:46;;;;;;;3.35;0.75;;;;;;;;;;5048885;28;20079;-67
2022/07/25 07:13:14;;;;;;;2.47;0.52;;;;;;;;;;5052451;28;20106;-67
2022/07/25 07:15:48;;;;;;;2.38;0.70;;;;;;;;;;5048843;28;20060;-67
2022/07/25 07:18:15;;;;;;;2.38;0.50;;;;;;;;;;5051752;28;20041;-67
2022/07/25 07:20:42;;;;;;;2.40;0.50;;;;;;;;;;5052782;28;20509;-67
2022/07/25 07:23:08;;;;;;;2.17;0.70;;;;;;;;;;5040995;28;20052;-67
2022/07/25 07:25:35;;;;;;;2.87;0.80;;;;;;;;;;5044512;28;20114;-67
2022/07/25 07:28:02;;;;;;;2.58;0.50;;;;;;;;;;5046815;28;20758;-66
2022/07/25 07:30:29;;;;;;;4.38;0.73;;;;;;;;;;5041585;28;20574;-66
2022/07/25 07:33:15;;;;;;;2.05;0.40;;;;;;;;;;5031576;28;20057;-68
2022/07/25 07:35:42;;;;;;;2.17;0.82;;;;;;;;;;5040390;28;20057;-68
2022/07/25 07:38:09;;;;;;;1.48;0.63;;;;;;;;;;5046499;28;20091;-67
2022/07/25 07:40:35;;;;;;;3.22;0.57;;;;;;;;;;5046602;28;20134;-66
2022/07/25 07:43:02;;;;;;;1.88;0.30;;;;;;;;;;5052179;28;20400;-67
2022/07/25 07:45:29;;;;;;;2.60;0.63;;;;;;;;;;5051827;28;20210;-68
2022/07/25 07:47:56;;;;;;;2.63;0.45;;;;;;;;;;5051861;28;20131;-68
2022/07/25 07:50:23;;;;;;;2.90;0.80;;;;;;;;;;5051662;28;20080;-68
2022/07/25 07:52:50;;;;;;;1.65;0.40;;;;;;;;;;5052055;28;20084;-68
2022/07/25 07:58:03;;;;;;;2.63;0.73;;;;;;;;;;5050810;28;20081;-67
2022/07/25 08:00:30;;;;;;;2.08;0.45;;;;;;;;;;5051762;28;20080;-67
2022/07/25 08:02:57;;;;;;;3.50;0.52;;;;;;;;;;5052079;28;20493;-67
2022/07/25 08:05:24;;;;;;;3.17;0.57;;;;;;;;;;5051951;28;20547;-67
2022/07/25 08:07:51;;;;;;;2.90;0.50;;;;;;;;;;5051792;28;20048;-67
2022/07/25 08:10:19;;;;;;;2.53;0.75;;;;;;;;;;5051935;28;20527;-66
2022/07/25 08:12:45;;;;;;;2.60;0.70;;;;;;;;;;5052200;28;20572;-67
2022/07/25 08:15:12;;;;;;;3.22;0.57;;;;;;;;;;5052195;28;20123;-66
2022/07/25 08:17:38;;;;;;;4.63;0.70;;;;;;;;;;5051978;28;20084;-66
2022/07/25 08:20:08;;;;;;;1.83;0.50;;;;;;;;;;5052129;28;20045;-69
2022/07/25 08:22:54;;;;;;;1.85;0.57;;;;;;;;;;5051889;28;20051;-67
2022/07/25 08:25:22;;;;;;;;;;;;;;;;;;5052296;28;20470;-67
2022/07/25 08:27:48;;;;;;;1.43;0.40;;;;;;;;;;5051122;28;20430;-67
2022/07/25 08:30:15;;;;;;;1.13;0.40;;;;;;;;;;5051992;28;20306;-67
2022/07/25 08:32:45;;;;;;;1.10;0.30;;;;;;;;;;5051619;28;20459;-67
2022/07/25 08:35:12;;;;;;;0.50;0.20;;;;;;;;;;5052226;28;20466;-67
2022/07/25 08:37:38;;;;;;;1.92;0.30;;;;;;;;;;5051532;28;20084;-67
2022/07/25 08:40:05;;;;;;;0.57;0.35;;;;;;;;;;5051825;28;20091;-69
2022/07/25 08:42:34;;;;;;;1.53;0.10;;;;;;;;;;5051556;28;20457;-70
2022/07/25 08:45:02;;;;;;;0.80;0.43;;;;;;;;;;5036524;28;20044;-69
2022/07/25 08:47:29;;;;;;;0.40;0.20;;;;;;;;;;5045390;28;20072;-70
2022/07/25 08:49:56;;;;;;;0.98;0.25;;;;;;;;;;5040033;28;20049;-68
2022/07/25 08:52:30;;;;;;;1.60;0.30;;;;;;;;;;5033565;28;20046;-70
2022/07/25 08:54:57;;;;;;;0.73;0.22;;;;;;;;;;5042585;28;20084;-70
2022/07/25 08:57:23;;;;;;;2.53;0.40;;;;;;;;;;5030353;28;20539;-70
2022/07/25 08:59:50;;;;;;;1.02;0.30;;;;;;;;;;5039393;28;20076;-70
2022/07/25 09:02:16;;;;;;;5.97;0.70;;;;;;;;;;5050729;28;20496;-70
2022/07/25 09:04:43;;;;;;;2.20;0.50;;;;;;;;;;5051099;28;20114;-69
2022/07/25 09:07:09;;;;;;;1.75;0.57;;;;;;;;;;5046726;28;20107;-70
2022/07/25 09:09:37;;;;;;;1.40;0.30;;;;;;;;;;5030678;28;20085;-68
2022/07/25 09:12:04;;;;;;;2.58;0.65;;;;;;;;;;5030120;28;20080;-70
2022/07/25 09:14:39;;;;;;;2.78;0.50;;;;;;;;;;5035821;28;20088;-70
2022/07/25 09:17:06;;;;;;;1.80;0.40;;;;;;;;;;5050930;28;20463;-70
2022/07/25 09:19:55;;;;;;;1.60;0.57;;;;;;;;;;5050021;28;20044;-69
2022/07/25 09:22:22;;;;;;;1.05;0.38;;;;;;;;;;5042125;28;20081;-69
2022/07/25 09:24:48;;;;;;;2.67;0.80;;;;;;;;;;5042036;28;20072;-69
2022/07/25 09:27:17;;;;;;;2.80;1.07;;;;;;;;;;5048743;28;20493;-69
2022/07/25 09:29:43;;;;;;;3.22;1.17;;;;;;;;;;5048291;28;20080;-69
2022/07/25 09:32:20;;;;;;;3.13;0.82;;;;;;;;;;5048672;28;20111;-69
2022/07/25 09:34:48;;;;;;;5.22;1.27;;;;;;;;;;5050650;28;20076;-69
2022/07/25 09:37:15;;;;;;;4.45;1.20;;;;;;;;;;5050404;28;20095;-70
2022/07/25 09:39:42;;;;;;;2.22;0.43;;;;;;;;;;5052224;28;20045;-69
2022/07/25 09:42:16;;;;;;;2.92;0.85;;;;;;;;;;5054729;28;20051;-71
2022/07/25 09:44:43;;;;;;;4.00;0.80;;;;;;;;;;5054998;28;20131;-71
2022/07/25 09:47:14;;;;;;;2.88;0.70;;;;;;;;;;5054712;28;20080;-70
2022/07/25 09:49:44;;;;;;;2.15;0.70;;;;;;;;;;5054032;28;20462;-70
2022/07/25 09:52:11;;;;;;;3.45;0.80;;;;;;;;;;5054784;28;20394;-70
2022/07/25 09:54:38;;;;;;;3.78;0.60;;;;;;;;;;5054459;28;20053;-71
2022/07/25 09:57:05;;;;;;;3.03;0.70;;;;;;;;;;5054457;28;20041;-70
2022/07/25 09:59:32;;;;;;;5.30;0.88;;;;;;;;;;5053812;28;20080;-69
2022/07/25 10:02:37;;;;;;;5.30;0.70;;;;;;;;;;5048628;28;20069;-69
2022/07/25 10:05:22;;;;;;;3.55;0.77;;;;;;;;;;5034199;28;20045;-70
2022/07/25 10:07:51;;;;;;;3.20;0.70;;;;;;;;;;5037825;28;20072;-69
2022/07/25 10:10:22;;;;;;;3.95;0.70;;;;;;;;;;5053132;28;20057;-69
2022/07/25 10:13:03;;;;;;;3.03;0.85;;;;;;;;;;5054120;28;20097;-69
2022/07/25 10:15:41;;;;;;;3.70;0.70;;;;;;;;;;5054659;28;20076;-70
2022/07/25 10:18:07;;;;;;;2.22;0.60;;;;;;;;;;5054255;28;20084;-70
2022/07/25 10:20:34;;;;;;;2.40;0.60;;;;;;;;;;5054093;28;20522;-70
2022/07/25 10:23:00;;;;;;;1.67;0.85;;;;;;;;;;5054186;28;20045;-70
2022/07/25 10:25:27;;;;;;;1.58;0.80;;;;;;;;;;5053585;28;20114;-69
2022/07/25 10:27:59;;;;;;;2.40;0.95;;;;;;;;;;5053153;28;20049;-70
2022/07/25 10:30:27;;;;;;;2.53;0.60;;;;;;;;;;5053877;28;20068;-69
2022/07/25 10:32:57;;;;;;;4.57;0.90;;;;;;;;;;5053819;28;20141;-71
2022/07/25 10:35:24;;;;;;;1.55;0.65;;;;;;;;;;5053832;28;20080;-71
2022/07/25 10:37:51;;;;;;;;;;;;;;;;;;5054019;28;20083;-72
2022/07/25 10:40:24;;;;;;;2.15;0.55;;;;;;;;;;5042371;28;19943;-70
2022/07/25 10:42:55;;;;;;;1.20;0.52;;;;;;;;;;5052791;28;20095;-71
2022/07/25 10:45:24;;;;;;;2.38;0.70;;;;;;;;;;5053293;28;20080;-69
2022/07/25 10:47:54;;;;;;;2.33;0.70;;;;;;;;;;5050055;28;20045;-70
2022/07/25 10:50:23;;;;;;;2.20;0.50;;;;;;;;;;5039194;28;20071;-72
2022/07/25 10:53:09;;;;;;;2.47;0.65;;;;;;;;;;5053200;28;20060;-71
2022/07/25 10:55:36;;;;;;;1.40;0.63;;;;;;;;;;5053295;28;20095;-71
2022/07/25 10:58:05;;;;;;;3.10;0.90;;;;;;;;;;5051776;28;20049;-69
2022/07/25 11:00:47;;;;;;;3.38;0.82;;;;;;;;;;5041575;28;20152;-71
2022/07/25 11:03:13;;;;;;;3.08;0.80;;;;;;;;;;5053101;28;20529;-70
2022/07/25 11:05:45;;;;;;;2.30;0.70;;;;;;;;;;5053611;28;20114;-69
2022/07/25 11:08:11;;;;;;;2.17;0.82;;;;;;;;;;5053086;28;20048;-71
2022/07/25 11:10:53;;;;;;;2.42;0.80;;;;;;;;;;5053519;28;20060;-70
2022/07/25 11:13:20;;;;;;;3.72;0.98;;;;;;;;;;5045545;28;20488;-69
2022/07/25 11:15:47;;;;;;;4.18;0.82;;;;;;;;;;5051565;28;20056;-70
2022/07/25 11:18:13;;;;;;;;;;;;;;;;;;5048909;28;20057;-71
2022/07/25 11:20:40;;;;;;;2.03;0.60;;;;;;;;;;5041310;28;19921;-70
2022/07/25 11:23:06;;;;;;;2.85;0.85;;;;;;;;;;5049136;28;20068;-70
2022/07/25 11:25:33;;;;;;;2.70;0.68;;;;;;;;;;5022728;28;20080;-69
2022/07/25 11:27:59;;;;;;;2.58;0.80;;;;;;;;;;5031818;28;20508;-70
2022/07/25 11:30:27;;;;;;;1.80;0.85;;;;;;;;;;5049677;28;20045;-69
2022/07/25 11:32:55;;;;;;;1.50;0.90;;;;;;;;;;5050388;28;20049;-69
2022/07/25 11:35:30;;;;;;;2.25;0.90;;;;;;;;;;5051993;28;20159;-69
2022/07/25 11:37:58;;;;;;;2.45;0.80;;;;;;;;;;5052051;28;20464;-70
2022/07/25 11:40:24;;;;;;;2.58;0.80;;;;;;;;;;5034932;28;20049;-69
2022/07/25 11:42:55;;;;;;;2.78;0.90;;;;;;;;;;5051240;28;20095;-68
2022/07/25 11:45:35;;;;;;;2.67;0.82;;;;;;;;;;5051791;28;20088;-69
2022/07/25 11:48:03;;;;;;;2.63;0.90;;;;;;;;;;5050851;28;20051;-70
2022/07/25 11:50:31;;;;;;;1.17;0.80;;;;;;;;;;5052173;28;20111;-70
2022/07/25 11:53:01;;;;;;;1.65;0.80;;;;;;;;;;5051723;28;20052;-70
2022/07/25 11:55:29;;;;;;;2.22;0.70;;;;;;;;;;5052009;28;20088;-68
2022/07/25 11:58:00;;;;;;;1.98;1.20;;;;;;;;;;5051428;28;20566;-69
2022/07/25 12:00:26;;;;;;;3.33;1.10;;;;;;;;;;5037265;28;20099;-69
2022/07/25 12:02:53;;;;;;;1.00;0.90;;;;;;;;;;5050815;28;20075;-70
2022/07/25 12:05:20;;;;;;;2.13;0.70;;;;;;;;;;5051834;28;20056;-70
2022/07/25 12:07:51;;;;;;;1.90;0.68;;;;;;;;;;5051633;28;20084;-70
2022/07/25 12:10:20;;;;;;;3.58;1.02;;;;;;;;;;5043177;28;20144;-69
2022/07/25 12:12:54;;;;;;;3.28;1.33;;;;;;;;;;5046031;28;20136;-69
2022/07/25 12:15:23;;;;;;;2.00;1.40;;;;;;;;;;5051170;28;20170;-68
2022/07/25 12:17:51;;;;;;;2.00;1.45;;;;;;;;;;5051355;28;20092;-70
2022/07/25 12:20:19;;;;;;;2.30;1.20;;;;;;;;;;5051615;28;20049;-68
2022/07/25 12:22:46;;;;;;;2.53;1.38;;;;;;;;;;5051223;28;20077;-66
2022/07/25 12:25:12;;;;;;;;;;;;;;;;;;5049052;28;20142;-68
2022/07/25 12:27:39;;;;;;;3.05;1.20;;;;;;;;;;5031117;28;20376;-68
2022/07/25 12:30:06;;;;;;;1.92;1.08;;;;;;;;;;5032086;28;20084;-68
2022/07/25 12:32:32;;;;;;;2.13;0.95;;;;;;;;;;5049441;28;20110;-68
2022/07/25 12:34:58;;;;;;;3.63;1.23;;;;;;;;;;5051203;28;20099;-68
2022/07/25 12:37:25;;;;;;;1.80;0.80;;;;;;;;;;5051125;28;20055;-68
2022/07/25 12:39:52;;;;;;;1.85;1.00;;;;;;;;;;5051180;28;20457;-68
2022/07/25 12:42:19;;;;;;;1.42;0.88;;;;;;;;;;5039504;28;20383;-70
2022/07/25 12:44:45;;;;;;;1.90;0.90;;;;;;;;;;5042954;28;20072;-67
2022/07/25 12:47:12;;;;;;;1.77;1.15;;;;;;;;;;5050845;28;20599;-66
2022/07/25 12:49:38;;;;;;;3.50;0.90;;;;;;;;;;5051004;28;20519;-68
2022/07/25 12:52:05;;;;;;;2.15;1.10;;;;;;;;;;5050901;28;20049;-68
2022/07/25 12:54:32;;;;;;;2.10;1.50;;;;;;;;;;5051192;28;20053;-68
2022/07/25 12:56:59;;;;;;;2.35;1.20;;;;;;;;;;5051095;28;20139;-68
2022/07/25 12:59:25;;;;;;;2.55;1.10;;;;;;;;;;5050778;28;20562;-67
2022/07/25 13:01:52;;;;;;;2.92;1.20;;;;;;;;;;5050829;28;20080;-68
2022/07/25 13:04:18;;;;;;;2.08;0.90;;;;;;;;;;5051056;28;20044;-68
2022/07/25 13:06:45;;;;;;;2.33;0.90;;;;;;;;;;5051077;28;20052;-68
2022/07/25 13:09:11;;;;;;;2.22;0.90;;;;;;;;;;5050725;28;20513;-68
2022/07/25 13:11:38;;;;;;;3.25;1.00;;;;;;;;;;5050790;28;20057;-67
2022/07/25 13:14:04;;;;;;;2.35;1.13;;;;;;;;;;5052741;28;20077;-67
2022/07/25 13:16:33;;;;;;;1.23;0.98;;;;;;;;;;5055144;28;20493;-67
2022/07/25 13:18:59;;;;;;;2.10;1.00;;;;;;;;;;5054950;28;20118;-68
2022/07/25 13:21:26;;;;;;;3.10;0.75;;;;;;;;;;5054707;28;20509;-68
2022/07/25 13:23:52;;;;;;;1.70;0.85;;;;;;;;;;5055010;28;20274;-67
2022/07/25 13:26:19;;;;;;;1.65;0.40;;;;;;;;;;5043366;28;20137;-67
2022/07/25 13:28:45;;;;;;;1.30;0.68;;;;;;;;;;5040555;28;20457;-67
2022/07/25 13:31:12;;;;;;;1.98;0.90;;;;;;;;;;5052474;28;20084;-67
2022/07/25 13:33:38;;;;;;;2.72;0.80;;;;;;;;;;5054749;28;20055;-67
2022/07/25 13:36:05;;;;;;;2.85;1.30;;;;;;;;;;5054684;28;20656;-67
2022/07/25 13:38:33;;;;;;;2.10;0.70;;;;;;;;;;5045154;28;20098;-67
2022/07/25 13:41:01;;;;;;;2.25;0.82;;;;;;;;;;5033952;28;20171;-67
2022/07/25 13:43:27;;;;;;;3.08;0.90;;;;;;;;;;5033904;28;20081;-69
2022/07/25 13:45:54;;;;;;;2.42;1.13;;;;;;;;;;5033857;28;20085;-67
2022/07/25 13:48:20;;;;;;;1.23;0.70;;;;;;;;;;5034595;28;20129;-67
2022/07/25 13:50:57;;;;;;;2.27;1.07;;;;;;;;;;5038647;28;20394;-68
2022/07/25 13:53:23;;;;;;;2.17;0.80;;;;;;;;;;5033163;28;20416;-68
2022/07/25 13:55:55;;;;;;;2.13;0.90;;;;;;;;;;5033768;28;20057;-67
2022/07/25 13:58:22;;;;;;;2.70;1.13;;;;;;;;;;5032336;28;20073;-68
2022/07/25 14:00:49;;;;;;;3.92;1.17;;;;;;;;;;5033639;28;20045;-68
2022/07/25 14:03:15;;;;;;;2.95;1.02;;;;;;;;;;5034292;28;20063;-67
2022/07/25 14:05:42;;;;;;;1.50;0.80;;;;;;;;;;5034052;28;20076;-67
2022/07/25 14:08:08;;;;;;;4.13;1.15;;;;;;;;;;5034310;28;20041;-68
2022/07/25 14:10:35;;;;;;;2.22;1.27;;;;;;;;;;5034410;28;20080;-67
2022/07/25 14:13:01;;;;;;;3.47;0.93;;;;;;;;;;5039433;28;20080;-68
2022/07/25 14:15:28;;;;;;;2.63;1.17;;;;;;;;;;5054543;28;20322;-67
2022/07/25 14:17:54;;;;;;;1.48;1.27;;;;;;;;;;5054068;28;20100;-67
2022/07/25 14:20:21;;;;;;;1.63;1.00;;;;;;;;;;5052515;28;20098;-68
2022/07/25 14:22:47;;;;;;;4.80;1.38;;;;;;;;;;5054030;28;20911;-67
2022/07/25 14:25:14;;;;;;;3.77;1.40;;;;;;;;;;5053454;28;20053;-68
2022/07/25 14:27:41;;;;;;;1.93;1.37;;;;;;;;;;5053944;28;20769;-67
2022/07/25 14:30:08;;;;;;;4.82;1.65;;;;;;;;;;5053983;28;20106;-68
2022/07/25 14:32:34;;;;;;;;;;;;;;;;;;5037430;28;20127;-68
2022/07/25 14:35:01;;;;;;;3.03;1.42;;;;;;;;;;5048186;28;20381;-66
2022/07/25 14:37:30;;;;;;;3.15;1.42;;;;;;;;;;5033835;28;20103;-68
2022/07/25 14:39:57;;;;;;;3.88;1.20;;;;;;;;;;5040588;28;20053;-67
2022/07/25 14:42:24;;;;;;;1.92;1.10;;;;;;;;;;5033596;28;20457;-67
2022/07/25 14:44:50;;;;;;;2.22;1.08;;;;;;;;;;5035149;28;20085;-68
2022/07/25 14:47:17;;;;;;;2.72;1.10;;;;;;;;;;5053561;28;20095;-68
2022/07/25 14:49:43;;;;;;;1.88;1.20;;;;;;;;;;5053911;28;20095;-68